< < Back
Terminal Aerodrome Forecast


Current Version              Previous Versions:   1  2  3  4  5  6  7  8  9  

Terminal Aerodrome Forecast

178
FTUS44 KOHX 251100
TAFCSV
TAF
KCSV 251138Z 2512/2612 00000KT P6SM SKC
     FM251500 28006G15KT P6SM FEW035
     FM252200 33005KT P6SM BKN035
     FM260700 VRB02KT 2SM BR SCT007=



Latest METAR

423
SAUS70 KWBC 252000 RRC
MTRCSV
METAR KCSV 251953Z AUTO 30004KT 10SM SCT028 BKN040 OVC050 19/12 A3006
RMK AO2 SLP171 T01940122


USA.gov is the U.S. government's official web portal to all federal, state and local government web resources and services.